sensor_id;sensor_type;location;lat;lon;timestamp;P1;durP1;ratioP1;P2;durP2;ratioP2
1410;SDS011;700;51.906;8.404;2022-08-16T00:03:03;20.80;;;11.17;;
1410;SDS011;700;51.906;8.404;2022-08-16T00:08:04;12.13;;;9.80;;
1410;SDS011;700;51.906;8.404;2022-08-16T00:13:08;11.03;;;10.07;;
1410;SDS011;700;51.906;8.404;2022-08-16T00:18:10;11.83;;;10.73;;
1410;SDS011;700;51.906;8.404;2022-08-16T00:23:13;11.83;;;10.80;;
1410;SDS011;700;51.906;8.404;2022-08-16T00:28:14;11.40;;;10.20;;
1410;SDS011;700;51.906;8.404;2022-08-16T00:33:16;11.17;;;10.07;;
1410;SDS011;700;51.906;8.404;2022-08-16T00:38:16;11.17;;;9.57;;
1410;SDS011;700;51.906;8.404;2022-08-16T00:43:26;11.93;;;10.83;;
1410;SDS011;700;51.906;8.404;2022-08-16T00:48:31;12.90;;;11.40;;
1410;SDS011;700;51.906;8.404;2022-08-16T00:53:33;12.07;;;10.87;;
1410;SDS011;700;51.906;8.404;2022-08-16T00:58:34;11.30;;;10.30;;
1410;SDS011;700;51.906;8.404;2022-08-16T01:03:38;11.37;;;10.30;;
1410;SDS011;700;51.906;8.404;2022-08-16T01:08:43;13.17;;;11.90;;
1410;SDS011;700;51.906;8.404;2022-08-16T01:13:53;13.47;;;10.70;;
1410;SDS011;700;51.906;8.404;2022-08-16T01:19:13;14.57;;;11.13;;
1410;SDS011;700;51.906;8.404;2022-08-16T01:29:27;12.30;;;11.10;;
1410;SDS011;700;51.906;8.404;2022-08-16T01:34:35;14.40;;;13.00;;
1410;SDS011;700;51.906;8.404;2022-08-16T01:39:36;15.60;;;14.07;;
1410;SDS011;700;51.906;8.404;2022-08-16T01:44:37;17.13;;;15.50;;
1410;SDS011;700;51.906;8.404;2022-08-16T01:49:40;15.70;;;14.07;;
1410;SDS011;700;51.906;8.404;2022-08-16T01:54:43;13.40;;;12.20;;
1410;SDS011;700;51.906;8.404;2022-08-16T01:59:44;16.20;;;13.87;;
1410;SDS011;700;51.906;8.404;2022-08-16T02:04:47;15.97;;;14.40;;
1410;SDS011;700;51.906;8.404;2022-08-16T02:09:47;16.20;;;14.60;;
1410;SDS011;700;51.906;8.404;2022-08-16T02:14:51;15.30;;;13.80;;
1410;SDS011;700;51.906;8.404;2022-08-16T02:19:51;14.50;;;13.13;;
1410;SDS011;700;51.906;8.404;2022-08-16T02:24:53;15.43;;;13.90;;
1410;SDS011;700;51.906;8.404;2022-08-16T02:29:53;16.03;;;14.50;;
1410;SDS011;700;51.906;8.404;2022-08-16T02:34:55;15.47;;;14.07;;
1410;SDS011;700;51.906;8.404;2022-08-16T02:39:55;14.57;;;13.17;;
1410;SDS011;700;51.906;8.404;2022-08-16T02:44:56;14.87;;;13.37;;
1410;SDS011;700;51.906;8.404;2022-08-16T02:49:57;17.97;;;14.23;;
1410;SDS011;700;51.906;8.404;2022-08-16T02:54:57;16.20;;;14.37;;
1410;SDS011;700;51.906;8.404;2022-08-16T02:59:58;14.57;;;13.20;;
1410;SDS011;700;51.906;8.404;2022-08-16T03:05:05;14.70;;;13.30;;
1410;SDS011;700;51.906;8.404;2022-08-16T03:10:08;15.17;;;13.53;;
1410;SDS011;700;51.906;8.404;2022-08-16T03:15:12;16.17;;;14.53;;
1410;SDS011;700;51.906;8.404;2022-08-16T03:20:14;15.40;;;14.10;;
1410;SDS011;700;51.906;8.404;2022-08-16T03:25:20;14.90;;;13.50;;
1410;SDS011;700;51.906;8.404;2022-08-16T03:30:25;15.33;;;13.90;;
1410;SDS011;700;51.906;8.404;2022-08-16T03:35:28;14.60;;;13.30;;
1410;SDS011;700;51.906;8.404;2022-08-16T03:40:31;15.63;;;14.23;;
1410;SDS011;700;51.906;8.404;2022-08-16T03:45:33;16.10;;;14.60;;
1410;SDS011;700;51.906;8.404;2022-08-16T03:50:35;15.43;;;14.03;;
1410;SDS011;700;51.906;8.404;2022-08-16T03:55:36;15.63;;;14.00;;
1410;SDS011;700;51.906;8.404;2022-08-16T04:00:37;14.30;;;13.00;;
1410;SDS011;700;51.906;8.404;2022-08-16T04:05:39;15.90;;;14.40;;
1410;SDS011;700;51.906;8.404;2022-08-16T04:10:42;15.20;;;13.70;;
1410;SDS011;700;51.906;8.404;2022-08-16T04:15:45;15.27;;;13.70;;
1410;SDS011;700;51.906;8.404;2022-08-16T04:20:46;18.37;;;15.40;;
1410;SDS011;700;51.906;8.404;2022-08-16T04:25:52;15.70;;;14.30;;
1410;SDS011;700;51.906;8.404;2022-08-16T04:30:54;14.70;;;13.20;;
1410;SDS011;700;51.906;8.404;2022-08-16T04:35:58;15.00;;;13.60;;
1410;SDS011;700;51.906;8.404;2022-08-16T04:40:59;15.93;;;14.10;;
1410;SDS011;700;51.906;8.404;2022-08-16T04:46:02;16.07;;;14.37;;
1410;SDS011;700;51.906;8.404;2022-08-16T04:51:05;15.27;;;13.77;;
1410;SDS011;700;51.906;8.404;2022-08-16T04:56:06;15.07;;;13.77;;
1410;SDS011;700;51.906;8.404;2022-08-16T05:01:07;15.13;;;13.63;;
1410;SDS011;700;51.906;8.404;2022-08-16T05:06:08;13.93;;;12.03;;
1410;SDS011;700;51.906;8.404;2022-08-16T05:11:10;14.27;;;12.90;;
1410;SDS011;700;51.906;8.404;2022-08-16T05:16:18;13.50;;;12.10;;
1410;SDS011;700;51.906;8.404;2022-08-16T05:21:23;13.70;;;11.80;;
1410;SDS011;700;51.906;8.404;2022-08-16T05:26:26;13.70;;;12.40;;
1410;SDS011;700;51.906;8.404;2022-08-16T05:31:29;12.97;;;11.40;;
1410;SDS011;700;51.906;8.404;2022-08-16T05:36:32;13.70;;;11.53;;
1410;SDS011;700;51.906;8.404;2022-08-16T05:41:34;12.70;;;11.40;;
1410;SDS011;700;51.906;8.404;2022-08-16T05:46:35;13.10;;;11.27;;
1410;SDS011;700;51.906;8.404;2022-08-16T05:51:39;14.00;;;11.40;;
1410;SDS011;700;51.906;8.404;2022-08-16T05:56:42;12.80;;;11.70;;
1410;SDS011;700;51.906;8.404;2022-08-16T06:01:47;12.90;;;10.80;;
1410;SDS011;700;51.906;8.404;2022-08-16T06:06:49;11.60;;;10.50;;
1410;SDS011;700;51.906;8.404;2022-08-16T06:11:50;10.30;;;9.30;;
1410;SDS011;700;51.906;8.404;2022-08-16T06:16:53;10.63;;;9.63;;
1410;SDS011;700;51.906;8.404;2022-08-16T06:21:56;10.20;;;8.90;;
1410;SDS011;700;51.906;8.404;2022-08-16T06:27:00;9.73;;;8.73;;
1410;SDS011;700;51.906;8.404;2022-08-16T06:32:00;9.37;;;8.50;;
1410;SDS011;700;51.906;8.404;2022-08-16T06:37:04;10.87;;;9.57;;
1410;SDS011;700;51.906;8.404;2022-08-16T06:42:06;9.40;;;8.60;;
1410;SDS011;700;51.906;8.404;2022-08-16T06:47:06;9.80;;;8.80;;
1410;SDS011;700;51.906;8.404;2022-08-16T06:52:07;10.10;;;9.17;;
1410;SDS011;700;51.906;8.404;2022-08-16T06:57:08;9.80;;;8.80;;
1410;SDS011;700;51.906;8.404;2022-08-16T07:02:09;9.40;;;8.50;;
1410;SDS011;700;51.906;8.404;2022-08-16T07:07:12;10.07;;;8.97;;
1410;SDS011;700;51.906;8.404;2022-08-16T07:12:13;10.77;;;8.87;;
1410;SDS011;700;51.906;8.404;2022-08-16T07:17:14;10.70;;;9.70;;
1410;SDS011;700;51.906;8.404;2022-08-16T07:22:15;8.97;;;8.03;;
1410;SDS011;700;51.906;8.404;2022-08-16T07:27:17;9.90;;;8.53;;
1410;SDS011;700;51.906;8.404;2022-08-16T07:32:17;10.30;;;8.60;;
1410;SDS011;700;51.906;8.404;2022-08-16T07:37:21;8.43;;;7.60;;
1410;SDS011;700;51.906;8.404;2022-08-16T07:42:21;8.00;;;7.20;;
1410;SDS011;700;51.906;8.404;2022-08-16T07:47:22;8.93;;;8.13;;
1410;SDS011;700;51.906;8.404;2022-08-16T07:52:24;9.17;;;8.27;;
1410;SDS011;700;51.906;8.404;2022-08-16T07:57:24;9.80;;;8.00;;
1410;SDS011;700;51.906;8.404;2022-08-16T08:02:26;10.70;;;9.70;;
1410;SDS011;700;51.906;8.404;2022-08-16T08:07:29;9.20;;;8.30;;
1410;SDS011;700;51.906;8.404;2022-08-16T08:12:30;8.97;;;7.70;;
1410;SDS011;700;51.906;8.404;2022-08-16T08:17:31;8.30;;;7.60;;
1410;SDS011;700;51.906;8.404;2022-08-16T08:22:32;11.73;;;8.80;;
1410;SDS011;700;51.906;8.404;2022-08-16T08:27:33;7.83;;;6.97;;
1410;SDS011;700;51.906;8.404;2022-08-16T08:32:34;7.53;;;5.70;;
1410;SDS011;700;51.906;8.404;2022-08-16T08:37:37;7.43;;;6.00;;
1410;SDS011;700;51.906;8.404;2022-08-16T08:42:38;10.40;;;6.90;;
1410;SDS011;700;51.906;8.404;2022-08-16T08:47:43;7.83;;;6.73;;
1410;SDS011;700;51.906;8.404;2022-08-16T08:52:47;9.00;;;6.17;;
1410;SDS011;700;51.906;8.404;2022-08-16T08:57:51;11.30;;;6.70;;
1410;SDS011;700;51.906;8.404;2022-08-16T09:02:52;6.77;;;6.17;;
1410;SDS011;700;51.906;8.404;2022-08-16T09:07:53;6.60;;;6.00;;
1410;SDS011;700;51.906;8.404;2022-08-16T09:12:57;6.80;;;5.93;;
1410;SDS011;700;51.906;8.404;2022-08-16T09:18:03;9.67;;;7.30;;
1410;SDS011;700;51.906;8.404;2022-08-16T09:23:04;5.10;;;4.60;;
1410;SDS011;700;51.906;8.404;2022-08-16T09:28:08;8.20;;;6.30;;
1410;SDS011;700;51.906;8.404;2022-08-16T09:33:09;6.50;;;5.30;;
1410;SDS011;700;51.906;8.404;2022-08-16T09:38:17;6.40;;;5.43;;
1410;SDS011;700;51.906;8.404;2022-08-16T09:43:19;7.53;;;6.83;;
1410;SDS011;700;51.906;8.404;2022-08-16T09:48:20;6.43;;;5.63;;
1410;SDS011;700;51.906;8.404;2022-08-16T09:53:21;25.27;;;7.83;;
1410;SDS011;700;51.906;8.404;2022-08-16T09:58:24;4.90;;;4.40;;
1410;SDS011;700;51.906;8.404;2022-08-16T10:03:27;4.60;;;4.20;;
1410;SDS011;700;51.906;8.404;2022-08-16T10:08:28;4.23;;;3.83;;
1410;SDS011;700;51.906;8.404;2022-08-16T10:13:31;6.10;;;4.87;;
1410;SDS011;700;51.906;8.404;2022-08-16T10:18:41;5.60;;;3.83;;
1410;SDS011;700;51.906;8.404;2022-08-16T10:23:42;3.50;;;3.10;;
1410;SDS011;700;51.906;8.404;2022-08-16T10:28:43;4.40;;;3.83;;
1410;SDS011;700;51.906;8.404;2022-08-16T10:33:46;3.87;;;3.50;;
1410;SDS011;700;51.906;8.404;2022-08-16T10:38:49;4.00;;;3.53;;
1410;SDS011;700;51.906;8.404;2022-08-16T10:43:55;5.47;;;4.03;;
1410;SDS011;700;51.906;8.404;2022-08-16T10:48:57;4.13;;;3.03;;
1410;SDS011;700;51.906;8.404;2022-08-16T10:53:57;4.53;;;3.40;;
1410;SDS011;700;51.906;8.404;2022-08-16T10:59:01;3.50;;;3.07;;
1410;SDS011;700;51.906;8.404;2022-08-16T11:04:02;3.37;;;2.93;;
1410;SDS011;700;51.906;8.404;2022-08-16T11:09:06;4.47;;;3.50;;
1410;SDS011;700;51.906;8.404;2022-08-16T11:14:09;5.70;;;3.70;;
1410;SDS011;700;51.906;8.404;2022-08-16T11:19:11;3.70;;;3.00;;
1410;SDS011;700;51.906;8.404;2022-08-16T11:24:12;3.20;;;2.83;;
1410;SDS011;700;51.906;8.404;2022-08-16T11:29:15;3.80;;;3.00;;
1410;SDS011;700;51.906;8.404;2022-08-16T11:34:18;7.17;;;3.30;;
1410;SDS011;700;51.906;8.404;2022-08-16T11:39:21;4.77;;;2.87;;
1410;SDS011;700;51.906;8.404;2022-08-16T11:44:22;5.53;;;3.10;;
1410;SDS011;700;51.906;8.404;2022-08-16T11:49:26;3.53;;;3.23;;
1410;SDS011;700;51.906;8.404;2022-08-16T11:54:26;4.27;;;3.40;;
1410;SDS011;700;51.906;8.404;2022-08-16T11:59:30;3.87;;;3.33;;
1410;SDS011;700;51.906;8.404;2022-08-16T12:04:36;4.47;;;3.60;;
1410;SDS011;700;51.906;8.404;2022-08-16T12:09:39;4.97;;;3.73;;
1410;SDS011;700;51.906;8.404;2022-08-16T12:14:43;4.03;;;3.30;;
1410;SDS011;700;51.906;8.404;2022-08-16T12:19:43;4.30;;;3.80;;
1410;SDS011;700;51.906;8.404;2022-08-16T12:24:44;5.07;;;4.57;;
1410;SDS011;700;51.906;8.404;2022-08-16T12:29:46;4.57;;;4.03;;
1410;SDS011;700;51.906;8.404;2022-08-16T12:34:47;4.57;;;3.70;;
1410;SDS011;700;51.906;8.404;2022-08-16T12:39:49;4.03;;;3.57;;
1410;SDS011;700;51.906;8.404;2022-08-16T12:44:54;3.77;;;3.37;;
1410;SDS011;700;51.906;8.404;2022-08-16T12:49:55;5.10;;;3.60;;
1410;SDS011;700;51.906;8.404;2022-08-16T12:55:01;7.87;;;3.53;;
1410;SDS011;700;51.906;8.404;2022-08-16T13:00:15;4.80;;;3.97;;
1410;SDS011;700;51.906;8.404;2022-08-16T13:05:16;4.83;;;3.90;;
1410;SDS011;700;51.906;8.404;2022-08-16T13:10:17;4.37;;;3.47;;
1410;SDS011;700;51.906;8.404;2022-08-16T13:15:20;8.33;;;4.00;;
1410;SDS011;700;51.906;8.404;2022-08-16T13:20:23;4.97;;;4.10;;
1410;SDS011;700;51.906;8.404;2022-08-16T13:25:25;4.70;;;3.50;;
1410;SDS011;700;51.906;8.404;2022-08-16T13:30:32;6.60;;;3.47;;
1410;SDS011;700;51.906;8.404;2022-08-16T13:35:40;3.87;;;3.50;;
1410;SDS011;700;51.906;8.404;2022-08-16T13:40:46;5.87;;;3.40;;
1410;SDS011;700;51.906;8.404;2022-08-16T13:45:46;5.07;;;3.20;;
1410;SDS011;700;51.906;8.404;2022-08-16T13:50:47;4.43;;;3.30;;
1410;SDS011;700;51.906;8.404;2022-08-16T13:55:48;4.03;;;3.63;;
1410;SDS011;700;51.906;8.404;2022-08-16T14:00:51;5.03;;;3.23;;
1410;SDS011;700;51.906;8.404;2022-08-16T14:05:54;4.47;;;3.67;;
1410;SDS011;700;51.906;8.404;2022-08-16T14:10:55;4.83;;;3.50;;
1410;SDS011;700;51.906;8.404;2022-08-16T14:15:56;5.53;;;4.00;;
1410;SDS011;700;51.906;8.404;2022-08-16T14:20:56;5.13;;;3.53;;
1410;SDS011;700;51.906;8.404;2022-08-16T14:25:59;4.67;;;3.70;;
1410;SDS011;700;51.906;8.404;2022-08-16T14:31:02;5.37;;;4.00;;
1410;SDS011;700;51.906;8.404;2022-08-16T14:36:06;3.97;;;3.53;;
1410;SDS011;700;51.906;8.404;2022-08-16T14:41:06;7.70;;;4.13;;
1410;SDS011;700;51.906;8.404;2022-08-16T14:46:07;4.07;;;3.70;;
1410;SDS011;700;51.906;8.404;2022-08-16T14:51:10;4.27;;;3.70;;
1410;SDS011;700;51.906;8.404;2022-08-16T14:56:14;4.20;;;3.57;;
1410;SDS011;700;51.906;8.404;2022-08-16T15:01:17;4.80;;;3.80;;
1410;SDS011;700;51.906;8.404;2022-08-16T15:06:21;4.43;;;3.80;;
1410;SDS011;700;51.906;8.404;2022-08-16T15:11:22;5.73;;;4.03;;
1410;SDS011;700;51.906;8.404;2022-08-16T15:16:25;8.60;;;3.90;;
1410;SDS011;700;51.906;8.404;2022-08-16T15:21:28;5.90;;;5.10;;
1410;SDS011;700;51.906;8.404;2022-08-16T15:26:29;6.40;;;4.00;;
1410;SDS011;700;51.906;8.404;2022-08-16T15:31:32;5.50;;;4.90;;
1410;SDS011;700;51.906;8.404;2022-08-16T15:36:34;5.70;;;4.30;;
1410;SDS011;700;51.906;8.404;2022-08-16T15:46:39;5.53;;;4.37;;
1410;SDS011;700;51.906;8.404;2022-08-16T15:51:42;6.00;;;3.97;;
1410;SDS011;700;51.906;8.404;2022-08-16T15:56:43;5.20;;;3.67;;
1410;SDS011;700;51.906;8.404;2022-08-16T16:01:44;5.00;;;4.00;;
1410;SDS011;700;51.906;8.404;2022-08-16T16:06:44;4.53;;;3.90;;
1410;SDS011;700;51.906;8.404;2022-08-16T16:11:47;7.23;;;4.67;;
1410;SDS011;700;51.906;8.404;2022-08-16T16:16:49;4.60;;;4.03;;
1410;SDS011;700;51.906;8.404;2022-08-16T16:21:52;7.57;;;6.87;;
1410;SDS011;700;51.906;8.404;2022-08-16T16:26:55;7.10;;;4.40;;
1410;SDS011;700;51.906;8.404;2022-08-16T16:31:56;5.20;;;4.53;;
1410;SDS011;700;51.906;8.404;2022-08-16T16:36:57;5.40;;;4.50;;
1410;SDS011;700;51.906;8.404;2022-08-16T16:41:58;5.90;;;5.13;;
1410;SDS011;700;51.906;8.404;2022-08-16T16:47:01;7.93;;;5.93;;
1410;SDS011;700;51.906;8.404;2022-08-16T16:52:02;7.53;;;5.60;;
1410;SDS011;700;51.906;8.404;2022-08-16T16:57:03;4.83;;;4.17;;
1410;SDS011;700;51.906;8.404;2022-08-16T17:02:04;5.87;;;5.00;;
1410;SDS011;700;51.906;8.404;2022-08-16T17:07:04;5.93;;;5.17;;
1410;SDS011;700;51.906;8.404;2022-08-16T17:12:10;5.20;;;4.63;;
1410;SDS011;700;51.906;8.404;2022-08-16T17:17:10;5.13;;;4.63;;
1410;SDS011;700;51.906;8.404;2022-08-16T17:22:13;5.30;;;4.80;;
1410;SDS011;700;51.906;8.404;2022-08-16T17:27:22;5.20;;;4.70;;
1410;SDS011;700;51.906;8.404;2022-08-16T17:32:27;7.77;;;4.60;;
1410;SDS011;700;51.906;8.404;2022-08-16T17:37:30;8.13;;;4.93;;
1410;SDS011;700;51.906;8.404;2022-08-16T17:42:31;6.10;;;4.90;;
1410;SDS011;700;51.906;8.404;2022-08-16T17:47:31;7.50;;;4.20;;
1410;SDS011;700;51.906;8.404;2022-08-16T17:52:32;5.30;;;4.80;;
1410;SDS011;700;51.906;8.404;2022-08-16T17:57:34;6.63;;;5.60;;
1410;SDS011;700;51.906;8.404;2022-08-16T18:02:37;6.40;;;5.00;;
1410;SDS011;700;51.906;8.404;2022-08-16T18:07:38;5.83;;;4.27;;
1410;SDS011;700;51.906;8.404;2022-08-16T18:12:42;6.13;;;4.43;;
1410;SDS011;700;51.906;8.404;2022-08-16T18:17:44;5.10;;;4.50;;
1410;SDS011;700;51.906;8.404;2022-08-16T18:22:45;6.37;;;4.93;;
1410;SDS011;700;51.906;8.404;2022-08-16T18:27:48;5.70;;;5.10;;
1410;SDS011;700;51.906;8.404;2022-08-16T18:32:51;8.30;;;5.30;;
1410;SDS011;700;51.906;8.404;2022-08-16T18:37:52;7.60;;;5.30;;
1410;SDS011;700;51.906;8.404;2022-08-16T18:42:55;7.10;;;4.97;;
1410;SDS011;700;51.906;8.404;2022-08-16T18:47:58;5.67;;;5.00;;
1410;SDS011;700;51.906;8.404;2022-08-16T18:53:04;7.27;;;6.07;;
1410;SDS011;700;51.906;8.404;2022-08-16T18:58:06;7.20;;;5.30;;
1410;SDS011;700;51.906;8.404;2022-08-16T19:03:12;6.40;;;4.90;;
1410;SDS011;700;51.906;8.404;2022-08-16T19:08:14;9.80;;;5.80;;
1410;SDS011;700;51.906;8.404;2022-08-16T19:13:17;8.10;;;5.43;;
1410;SDS011;700;51.906;8.404;2022-08-16T19:18:26;8.30;;;6.13;;
1410;SDS011;700;51.906;8.404;2022-08-16T19:23:32;9.33;;;6.17;;
1410;SDS011;700;51.906;8.404;2022-08-16T19:28:36;7.10;;;5.80;;
1410;SDS011;700;51.906;8.404;2022-08-16T19:33:43;7.73;;;5.60;;
1410;SDS011;700;51.906;8.404;2022-08-16T19:38:47;7.50;;;6.23;;
1410;SDS011;700;51.906;8.404;2022-08-16T19:43:47;7.03;;;6.30;;
1410;SDS011;700;51.906;8.404;2022-08-16T19:48:50;7.07;;;6.40;;
1410;SDS011;700;51.906;8.404;2022-08-16T19:53:51;8.33;;;7.23;;
1410;SDS011;700;51.906;8.404;2022-08-16T19:58:52;8.47;;;7.53;;
1410;SDS011;700;51.906;8.404;2022-08-16T20:03:53;10.37;;;6.80;;
1410;SDS011;700;51.906;8.404;2022-08-16T20:08:54;8.03;;;7.23;;
1410;SDS011;700;51.906;8.404;2022-08-16T20:13:57;9.90;;;6.70;;
1410;SDS011;700;51.906;8.404;2022-08-16T20:19:00;8.00;;;6.43;;
1410;SDS011;700;51.906;8.404;2022-08-16T20:24:01;7.57;;;6.90;;
1410;SDS011;700;51.906;8.404;2022-08-16T20:29:02;8.40;;;7.37;;
1410;SDS011;700;51.906;8.404;2022-08-16T20:34:08;8.77;;;7.20;;
1410;SDS011;700;51.906;8.404;2022-08-16T20:39:09;7.27;;;6.57;;
1410;SDS011;700;51.906;8.404;2022-08-16T20:44:12;8.30;;;7.07;;
1410;SDS011;700;51.906;8.404;2022-08-16T20:49:15;8.60;;;6.77;;
1410;SDS011;700;51.906;8.404;2022-08-16T20:54:18;7.53;;;6.50;;
1410;SDS011;700;51.906;8.404;2022-08-16T20:59:21;7.60;;;6.80;;
1410;SDS011;700;51.906;8.404;2022-08-16T21:04:25;9.17;;;7.60;;
1410;SDS011;700;51.906;8.404;2022-08-16T21:09:30;7.80;;;7.00;;
1410;SDS011;700;51.906;8.404;2022-08-16T21:14:35;12.10;;;8.13;;
1410;SDS011;700;51.906;8.404;2022-08-16T21:19:36;11.53;;;7.77;;
1410;SDS011;700;51.906;8.404;2022-08-16T21:24:39;12.60;;;8.00;;
1410;SDS011;700;51.906;8.404;2022-08-16T21:29:40;10.17;;;7.80;;
1410;SDS011;700;51.906;8.404;2022-08-16T21:34:41;14.63;;;7.70;;
1410;SDS011;700;51.906;8.404;2022-08-16T21:39:43;8.23;;;7.40;;
1410;SDS011;700;51.906;8.404;2022-08-16T21:44:46;8.23;;;7.10;;
1410;SDS011;700;51.906;8.404;2022-08-16T21:49:49;11.23;;;9.03;;
1410;SDS011;700;51.906;8.404;2022-08-16T21:54:50;8.90;;;7.50;;
1410;SDS011;700;51.906;8.404;2022-08-16T21:59:53;8.27;;;7.33;;
1410;SDS011;700;51.906;8.404;2022-08-16T22:04:58;9.17;;;8.27;;
1410;SDS011;700;51.906;8.404;2022-08-16T22:10:00;9.40;;;6.97;;
1410;SDS011;700;51.906;8.404;2022-08-16T22:15:06;8.13;;;7.30;;
1410;SDS011;700;51.906;8.404;2022-08-16T22:20:08;12.07;;;8.73;;
1410;SDS011;700;51.906;8.404;2022-08-16T22:25:09;10.03;;;7.97;;
1410;SDS011;700;51.906;8.404;2022-08-16T22:30:10;8.70;;;7.80;;
1410;SDS011;700;51.906;8.404;2022-08-16T22:35:11;10.10;;;7.60;;
1410;SDS011;700;51.906;8.404;2022-08-16T22:40:12;9.90;;;8.70;;
1410;SDS011;700;51.906;8.404;2022-08-16T22:45:15;9.97;;;9.07;;
1410;SDS011;700;51.906;8.404;2022-08-16T22:50:19;11.03;;;9.97;;
1410;SDS011;700;51.906;8.404;2022-08-16T22:55:22;9.33;;;8.50;;
1410;SDS011;700;51.906;8.404;2022-08-16T23:00:27;10.20;;;9.20;;
1410;SDS011;700;51.906;8.404;2022-08-16T23:05:34;10.27;;;9.00;;
1410;SDS011;700;51.906;8.404;2022-08-16T23:11:04;10.87;;;9.30;;
1410;SDS011;700;51.906;8.404;2022-08-16T23:16:06;10.83;;;9.77;;
1410;SDS011;700;51.906;8.404;2022-08-16T23:21:10;11.10;;;9.93;;
1410;SDS011;700;51.906;8.404;2022-08-16T23:26:11;11.87;;;10.60;;
1410;SDS011;700;51.906;8.404;2022-08-16T23:31:14;11.87;;;10.77;;
1410;SDS011;700;51.906;8.404;2022-08-16T23:36:15;13.37;;;10.57;;
1410;SDS011;700;51.906;8.404;2022-08-16T23:41:16;11.03;;;9.20;;
1410;SDS011;700;51.906;8.404;2022-08-16T23:46:19;10.83;;;9.70;;
1410;SDS011;700;51.906;8.404;2022-08-16T23:51:22;13.73;;;10.90;;
1410;SDS011;700;51.906;8.404;2022-08-16T23:56:22;11.10;;;10.00;;
